Time;durP1;ratioP1;P1;durP2;ratioP2;P2;SDS_P1;SDS_P2;PMS_P1;PMS_P2;Temp;Humidity;BMP_temperature;BMP_pressure;BME280_temperature;BME280_humidity;BME280_pressure;Samples;Min_cycle;Max_cycle;Signal;HPM_P1;HPM_P2
2022/08/12 00:44:19;;;;;;;2.60;2.40;;;;;;;;;;4951176;29;20214;-66
2022/08/12 00:46:49;;;;;;;3.20;2.22;;;;;;;;;;4952900;29;20211;-67
2022/08/12 00:49:17;;;;;;;2.90;2.20;;;;;;;;;;4952850;29;20266;-66
2022/08/12 00:54:34;;;;;;;2.30;2.20;;;;;;;;;;4946585;29;20311;-66
2022/08/12 00:57:02;;;;;;;2.63;2.42;;;;;;;;;;4946629;29;20203;-66
2022/08/12 00:59:29;;;;;;;2.75;1.75;;;;;;;;;;4952514;29;20319;-66
2022/08/12 01:01:57;;;;;;;3.03;1.90;;;;;;;;;;4953412;29;20227;-66
2022/08/12 01:12:46;;;;;;;2.55;2.30;;;;;;;;;;4952345;29;20313;-67
2022/08/12 01:15:14;;;;;;;2.50;2.35;;;;;;;;;;4952403;29;20207;-67
2022/08/12 01:17:42;;;;;;;2.40;2.40;;;;;;;;;;4952156;29;20219;-67
2022/08/12 01:20:13;;;;;;;3.75;2.30;;;;;;;;;;4952241;29;20215;-67
2022/08/12 01:22:46;;;;;;;2.20;2.00;;;;;;;;;;4951881;29;20337;-67
2022/08/12 01:25:17;;;;;;;4.03;2.42;;;;;;;;;;4952460;28;20234;-68
2022/08/12 01:27:45;;;;;;;2.33;2.13;;;;;;;;;;4951832;29;20234;-67
2022/08/12 01:30:13;;;;;;;2.85;2.08;;;;;;;;;;4952331;29;20235;-68
2022/08/12 01:32:41;;;;;;;2.00;1.85;;;;;;;;;;4951924;29;20200;-68
2022/08/12 01:35:10;;;;;;;3.03;2.17;;;;;;;;;;4941090;29;20215;-67
2022/08/12 01:37:42;;;;;;;6.28;2.33;;;;;;;;;;4950111;28;20753;-68
2022/08/12 01:40:11;;;;;;;2.30;2.20;;;;;;;;;;4951870;29;20218;-68
2022/08/12 01:42:43;;;;;;;2.25;2.13;;;;;;;;;;4951429;28;20338;-68
2022/08/12 01:45:11;;;;;;;2.75;2.35;;;;;;;;;;4949654;29;20241;-68
2022/08/12 01:47:42;;;;;;;3.20;2.30;;;;;;;;;;4951851;29;20290;-68
2022/08/12 01:50:17;;;;;;;2.20;2.20;;;;;;;;;;4950222;29;20282;-67
2022/08/12 01:52:52;;;;;;;2.33;2.20;;;;;;;;;;4950871;29;20207;-67
2022/08/12 01:55:20;;;;;;;2.40;2.30;;;;;;;;;;4951834;29;20237;-66
2022/08/12 01:57:59;;;;;;;2.88;1.88;;;;;;;;;;4942777;29;20211;-67
2022/08/12 02:00:47;;;;;;;2.38;2.15;;;;;;;;;;4952177;29;20207;-68
2022/08/12 02:03:23;;;;;;;2.20;2.10;;;;;;;;;;4951328;29;20229;-68
2022/08/12 02:11:28;;;;;;;8.35;2.35;;;;;;;;;;4951174;29;20261;-68
2022/08/12 02:14:06;;;;;;;5.72;2.08;;;;;;;;;;4951859;29;20207;-68
2022/08/12 02:16:44;;;;;;;2.17;2.13;;;;;;;;;;4943581;29;20215;-68
2022/08/12 02:19:26;;;;;;;4.82;2.40;;;;;;;;;;4952467;28;20211;-68
2022/08/12 02:21:57;;;;;;;2.35;2.15;;;;;;;;;;4953170;28;20242;-68
2022/08/12 02:24:27;;;;;;;2.28;2.20;;;;;;;;;;4955742;28;20227;-68
2022/08/12 02:26:55;;;;;;;3.75;2.40;;;;;;;;;;4949691;28;20249;-68
2022/08/12 02:29:36;;;;;;;2.78;2.00;;;;;;;;;;4949410;28;20299;-68
2022/08/12 02:32:03;;;;;;;2.47;2.38;;;;;;;;;;4947627;29;20207;-68
2022/08/12 02:34:31;;;;;;;2.25;2.15;;;;;;;;;;4949838;28;20213;-68
2022/08/12 02:36:59;;;;;;;2.53;2.15;;;;;;;;;;4949281;28;20211;-68
2022/08/12 02:39:27;;;;;;;2.30;2.17;;;;;;;;;;4947644;29;20335;-68
2022/08/12 02:41:57;;;;;;;3.90;2.13;;;;;;;;;;4947195;29;20214;-68
2022/08/12 02:44:26;;;;;;;2.42;2.20;;;;;;;;;;4949177;29;20207;-68
2022/08/12 02:46:55;;;;;;;2.50;2.30;;;;;;;;;;4949326;29;20274;-68
2022/08/12 02:49:25;;;;;;;2.60;2.20;;;;;;;;;;4947633;28;20207;-68
2022/08/12 02:51:53;;;;;;;2.50;2.30;;;;;;;;;;4949172;29;20297;-67
2022/08/12 02:54:21;;;;;;;2.17;2.08;;;;;;;;;;4944160;29;20215;-68
2022/08/12 02:56:49;;;;;;;2.63;2.45;;;;;;;;;;4947164;28;20273;-68
2022/08/12 02:59:17;;;;;;;3.15;2.05;;;;;;;;;;4958615;28;20210;-68
2022/08/12 03:01:46;;;;;;;3.85;2.33;;;;;;;;;;4957036;28;20207;-68
2022/08/12 03:04:18;;;;;;;2.72;2.63;;;;;;;;;;4954687;28;20229;-67
2022/08/12 03:06:48;;;;;;;2.22;2.22;;;;;;;;;;4957742;28;20303;-65
2022/08/12 03:09:17;;;;;;;2.30;2.20;;;;;;;;;;4957988;28;20210;-68
2022/08/12 03:11:48;;;;;;;2.50;1.90;;;;;;;;;;4955659;28;20210;-67
2022/08/12 03:14:16;;;;;;;3.17;1.77;;;;;;;;;;4955991;28;20204;-68
2022/08/12 03:16:45;;;;;;;3.78;2.25;;;;;;;;;;4956308;28;20239;-68
2022/08/12 03:19:12;;;;;;;2.10;2.00;;;;;;;;;;4952762;28;20218;-66
2022/08/12 03:21:42;;;;;;;3.40;2.55;;;;;;;;;;4955441;28;20226;-67
2022/08/12 03:24:10;;;;;;;2.38;2.17;;;;;;;;;;4949187;29;20234;-66
2022/08/12 03:26:38;;;;;;;2.55;2.40;;;;;;;;;;4948581;29;20744;-66
2022/08/12 03:29:06;;;;;;;2.88;2.70;;;;;;;;;;4949603;29;20218;-66
2022/08/12 03:31:33;;;;;;;2.40;2.20;;;;;;;;;;4949118;29;20243;-66
2022/08/12 03:34:01;;;;;;;2.38;2.10;;;;;;;;;;4948050;29;20678;-67
2022/08/12 03:36:29;;;;;;;2.35;2.20;;;;;;;;;;4948985;29;20298;-67
2022/08/12 03:39:19;;;;;;;2.97;2.20;;;;;;;;;;4948450;29;20919;-67
2022/08/12 03:41:48;;;;;;;3.85;2.10;;;;;;;;;;4949116;29;20207;-67
2022/08/12 04:00:51;;;;;;;2.40;2.30;;;;;;;;;;4950389;28;20630;-67
2022/08/12 04:06:04;;;;;;;2.45;2.30;;;;;;;;;;4951989;29;20342;-67
2022/08/12 04:08:31;;;;;;;2.55;2.42;;;;;;;;;;4951164;29;20590;-67
2022/08/12 04:13:47;;;;;;;3.90;2.47;;;;;;;;;;4951003;29;20217;-67
2022/08/12 04:16:15;;;;;;;2.58;2.30;;;;;;;;;;4950664;29;20635;-67
2022/08/12 04:18:42;;;;;;;5.40;2.60;;;;;;;;;;4950598;29;20514;-67
2022/08/12 04:21:10;;;;;;;2.35;2.35;;;;;;;;;;4949046;29;20222;-67
2022/08/12 04:23:38;;;;;;;3.45;2.47;;;;;;;;;;4950932;29;20231;-66
2022/08/12 04:26:06;;;;;;;3.25;2.40;;;;;;;;;;4951191;29;20230;-66
2022/08/12 04:28:33;;;;;;;3.55;2.15;;;;;;;;;;4951102;29;20298;-68
2022/08/12 04:31:01;;;;;;;3.65;2.63;;;;;;;;;;4951210;29;20632;-67
2022/08/12 04:33:28;;;;;;;2.45;2.30;;;;;;;;;;4951078;29;20203;-66
2022/08/12 04:35:55;;;;;;;2.50;2.40;;;;;;;;;;4951349;29;20207;-66
2022/08/12 04:38:23;;;;;;;3.15;2.70;;;;;;;;;;4950891;29;20900;-67
2022/08/12 04:40:50;;;;;;;5.13;2.53;;;;;;;;;;4951332;29;20207;-67
2022/08/12 04:43:19;;;;;;;2.40;2.30;;;;;;;;;;4948155;29;20230;-66
2022/08/12 04:45:48;;;;;;;2.53;2.42;;;;;;;;;;4949700;29;20623;-67
2022/08/12 04:48:15;;;;;;;3.85;2.65;;;;;;;;;;4951009;29;20203;-66
2022/08/12 04:50:44;;;;;;;3.03;2.88;;;;;;;;;;4950586;29;20302;-67
2022/08/12 04:53:12;;;;;;;2.92;2.45;;;;;;;;;;4950427;29;20211;-66
2022/08/12 04:55:41;;;;;;;5.18;2.85;;;;;;;;;;4950834;29;20213;-67
2022/08/12 04:58:08;;;;;;;2.47;2.38;;;;;;;;;;4949900;29;20645;-67
2022/08/12 05:00:37;;;;;;;2.30;2.30;;;;;;;;;;4948352;29;20704;-66
2022/08/12 05:03:09;;;;;;;2.92;2.58;;;;;;;;;;4950511;29;20311;-67
2022/08/12 05:05:36;;;;;;;2.88;2.45;;;;;;;;;;4951067;29;20670;-67
2022/08/12 05:08:05;;;;;;;3.42;2.45;;;;;;;;;;4950553;29;20213;-67
2022/08/12 05:10:32;;;;;;;3.72;2.42;;;;;;;;;;4950752;28;20211;-67
2022/08/12 05:13:00;;;;;;;6.60;2.40;;;;;;;;;;4950918;29;20207;-67
2022/08/12 05:15:28;;;;;;;2.60;2.50;;;;;;;;;;4950200;29;20211;-67
2022/08/12 05:17:56;;;;;;;2.05;2.05;;;;;;;;;;4950360;29;20211;-66
2022/08/12 05:20:24;;;;;;;2.47;2.30;;;;;;;;;;4951547;29;20218;-67
2022/08/12 05:22:52;;;;;;;2.53;2.42;;;;;;;;;;4945998;29;20640;-67
2022/08/12 05:25:19;;;;;;;3.60;2.95;;;;;;;;;;4951732;29;20227;-67
2022/08/12 05:27:47;;;;;;;4.60;2.50;;;;;;;;;;4950504;29;20671;-67
2022/08/12 05:30:14;;;;;;;2.42;2.25;;;;;;;;;;4951280;29;20203;-67
2022/08/12 05:32:41;;;;;;;2.38;2.05;;;;;;;;;;4950871;29;20956;-67
2022/08/12 05:35:10;;;;;;;3.35;2.15;;;;;;;;;;4950344;29;20215;-66
2022/08/12 05:37:37;;;;;;;3.50;2.22;;;;;;;;;;4952351;28;20239;-66
2022/08/12 05:40:05;;;;;;;2.13;2.03;;;;;;;;;;4955203;28;20577;-67
2022/08/12 05:42:32;;;;;;;2.53;2.28;;;;;;;;;;4950831;29;20207;-67
2022/08/12 05:45:00;;;;;;;3.40;2.10;;;;;;;;;;4950905;29;20659;-67
2022/08/12 05:47:27;;;;;;;2.30;2.20;;;;;;;;;;4949985;29;20341;-67
2022/08/12 05:49:54;;;;;;;3.45;3.03;;;;;;;;;;4949858;29;20203;-69
2022/08/12 05:52:23;;;;;;;2.53;2.22;;;;;;;;;;4949979;29;20692;-67
2022/08/12 05:54:50;;;;;;;2.38;2.38;;;;;;;;;;4948272;29;20203;-64
2022/08/12 05:57:17;;;;;;;3.10;2.20;;;;;;;;;;4949604;29;20219;-66
2022/08/12 05:59:44;;;;;;;3.15;2.40;;;;;;;;;;4949755;29;20211;-66
2022/08/12 06:02:14;;;;;;;2.78;2.58;;;;;;;;;;4949426;29;20294;-65
2022/08/12 06:04:42;;;;;;;2.10;2.03;;;;;;;;;;4949083;29;20246;-66
2022/08/12 06:07:11;;;;;;;2.88;2.40;;;;;;;;;;4949531;29;20210;-67
2022/08/12 06:09:39;;;;;;;3.35;2.60;;;;;;;;;;4949569;29;20262;-67
2022/08/12 06:12:06;;;;;;;2.92;2.70;;;;;;;;;;4948758;29;20269;-67
2022/08/12 06:14:35;;;;;;;2.28;2.08;;;;;;;;;;4947210;29;20227;-67
2022/08/12 06:17:03;;;;;;;2.20;2.10;;;;;;;;;;4947969;29;20293;-67
2022/08/12 06:19:30;;;;;;;2.15;1.95;;;;;;;;;;4948814;29;20207;-66
2022/08/12 06:21:57;;;;;;;2.33;2.10;;;;;;;;;;4949226;28;20441;-67
2022/08/12 06:24:27;;;;;;;7.55;2.30;;;;;;;;;;4948436;28;20242;-66
2022/08/12 06:26:57;;;;;;;2.88;2.67;;;;;;;;;;4948196;28;20618;-67
2022/08/12 06:29:24;;;;;;;7.18;2.50;;;;;;;;;;4949430;29;20215;-67
2022/08/12 06:31:52;;;;;;;3.08;2.33;;;;;;;;;;4948518;29;20227;-67
2022/08/12 06:34:19;;;;;;;2.85;2.00;;;;;;;;;;4948211;29;20559;-67
2022/08/12 06:36:47;;;;;;;2.78;2.10;;;;;;;;;;4948662;29;20211;-67
2022/08/12 06:39:14;;;;;;;12.00;2.05;;;;;;;;;;4947993;29;20562;-66
2022/08/12 06:44:27;;;;;;;1.88;1.77;;;;;;;;;;4949401;29;20233;-67
2022/08/12 06:46:54;;;;;;;3.15;2.33;;;;;;;;;;4948238;29;20934;-66
2022/08/12 06:49:21;;;;;;;3.40;2.03;;;;;;;;;;4960090;28;20222;-66
2022/08/12 06:51:48;;;;;;;5.60;1.88;;;;;;;;;;4949764;29;20273;-66
2022/08/12 06:54:15;;;;;;;2.92;1.90;;;;;;;;;;4951813;28;20262;-66
2022/08/12 06:56:43;;;;;;;2.42;2.10;;;;;;;;;;4949145;29;20218;-66
2022/08/12 06:59:12;;;;;;;1.77;1.77;;;;;;;;;;4948588;29;20616;-65
2022/08/12 07:01:41;;;;;;;3.47;1.90;;;;;;;;;;4949912;29;20207;-68
2022/08/12 07:04:08;;;;;;;5.63;2.10;;;;;;;;;;4947625;29;20227;-68
2022/08/12 07:06:35;;;;;;;2.15;2.00;;;;;;;;;;4949658;28;20207;-68
2022/08/12 07:09:03;;;;;;;3.63;1.90;;;;;;;;;;4953856;28;20690;-68
2022/08/12 07:11:32;;;;;;;2.10;2.00;;;;;;;;;;4954678;28;20737;-68
2022/08/12 07:14:03;;;;;;;1.95;1.90;;;;;;;;;;4953749;28;20785;-68
2022/08/12 07:16:50;;;;;;;1.85;1.85;;;;;;;;;;4961536;28;20203;-69
2022/08/12 07:19:20;;;;;;;2.35;1.80;;;;;;;;;;4947623;28;20658;-69
2022/08/12 07:21:47;;;;;;;3.72;1.80;;;;;;;;;;4949357;29;20221;-69
2022/08/12 07:24:14;;;;;;;2.10;1.98;;;;;;;;;;4948479;29;20653;-69
2022/08/12 07:26:43;;;;;;;1.60;1.60;;;;;;;;;;4949864;29;20250;-65
2022/08/12 07:29:10;;;;;;;1.60;1.60;;;;;;;;;;4949498;28;20219;-66
2022/08/12 07:31:38;;;;;;;1.90;1.90;;;;;;;;;;4947914;29;20210;-67
2022/08/12 07:34:06;;;;;;;2.58;1.70;;;;;;;;;;4950665;28;20203;-66
2022/08/12 07:36:34;;;;;;;1.73;1.63;;;;;;;;;;4958149;28;21827;-66
2022/08/12 07:39:02;;;;;;;1.48;1.40;;;;;;;;;;4948223;29;20262;-61
2022/08/12 07:41:30;;;;;;;2.05;1.63;;;;;;;;;;4952867;29;20233;-61
2022/08/12 07:43:58;;;;;;;1.77;1.75;;;;;;;;;;4952827;29;20289;-64
2022/08/12 07:46:30;;;;;;;2.22;1.50;;;;;;;;;;4952901;29;20303;-63
2022/08/12 07:48:57;;;;;;;1.98;1.88;;;;;;;;;;4953654;29;20213;-64
2022/08/12 07:51:25;;;;;;;2.35;1.73;;;;;;;;;;4952840;29;20218;-67
2022/08/12 07:53:53;;;;;;;4.07;1.67;;;;;;;;;;4953255;29;20199;-62
2022/08/12 07:56:20;;;;;;;1.52;1.48;;;;;;;;;;4953136;29;20290;-62
2022/08/12 07:58:54;;;;;;;3.45;1.70;;;;;;;;;;4952264;29;20207;-63
2022/08/12 08:01:22;;;;;;;1.65;1.55;;;;;;;;;;4952144;29;20325;-64
2022/08/12 08:06:35;;;;;;;1.65;1.65;;;;;;;;;;4952975;29;20528;-61
2022/08/12 08:09:04;;;;;;;1.70;1.50;;;;;;;;;;4952810;29;20202;-61
2022/08/12 08:14:17;;;;;;;3.80;2.13;;;;;;;;;;4952475;29;20592;-62
2022/08/12 08:16:45;;;;;;;2.72;1.90;;;;;;;;;;4952348;29;20207;-62
2022/08/12 08:19:18;;;;;;;1.75;1.75;;;;;;;;;;4952614;29;20270;-63
2022/08/12 08:21:45;;;;;;;1.40;1.40;;;;;;;;;;4950706;29;20215;-62
2022/08/12 08:24:16;;;;;;;1.42;1.33;;;;;;;;;;4950334;28;20239;-62
2022/08/12 08:26:44;;;;;;;1.40;1.40;;;;;;;;;;4952188;29;20262;-61
2022/08/12 08:29:11;;;;;;;1.73;1.35;;;;;;;;;;4951057;29;20211;-62
2022/08/12 08:31:42;;;;;;;1.95;1.85;;;;;;;;;;4951921;29;20302;-63
2022/08/12 08:34:09;;;;;;;3.15;1.50;;;;;;;;;;4952759;29;20207;-62
2022/08/12 08:36:36;;;;;;;4.95;1.40;;;;;;;;;;4952315;29;20677;-62
2022/08/12 08:39:03;;;;;;;1.52;1.40;;;;;;;;;;4952590;29;20215;-62
2022/08/12 08:44:16;;;;;;;1.65;1.38;;;;;;;;;;4952303;29;20719;-62
2022/08/12 08:46:44;;;;;;;1.30;1.30;;;;;;;;;;4951377;28;20233;-65
2022/08/12 08:49:11;;;;;;;1.25;1.20;;;;;;;;;;4952770;28;20210;-62
2022/08/12 08:51:39;;;;;;;1.50;1.50;;;;;;;;;;4946245;29;20212;-63
2022/08/12 08:54:07;;;;;;;1.67;1.08;;;;;;;;;;4952008;29;20219;-61
2022/08/12 08:56:42;;;;;;;1.23;1.23;;;;;;;;;;4947669;29;20211;-62
2022/08/12 08:59:10;;;;;;;1.50;1.40;;;;;;;;;;4952223;29;20800;-62
2022/08/12 09:01:37;;;;;;;1.20;1.20;;;;;;;;;;4952145;29;20220;-62
2022/08/12 09:04:05;;;;;;;1.30;1.20;;;;;;;;;;4951919;28;20230;-62
2022/08/12 09:06:32;;;;;;;1.25;1.25;;;;;;;;;;4952970;28;20211;-62
2022/08/12 09:08:59;;;;;;;2.42;1.20;;;;;;;;;;4952163;29;20214;-62
2022/08/12 09:14:12;;;;;;;1.40;1.40;;;;;;;;;;4935616;29;20214;-61
2022/08/12 09:16:39;;;;;;;6.00;1.63;;;;;;;;;;4951809;29;20207;-62
2022/08/12 09:19:07;;;;;;;1.63;1.52;;;;;;;;;;4952040;29;20207;-61
2022/08/12 09:21:35;;;;;;;1.80;1.50;;;;;;;;;;4952082;29;20214;-62
2022/08/12 09:24:02;;;;;;;1.42;1.15;;;;;;;;;;4951663;29;20227;-62
2022/08/12 09:26:29;;;;;;;1.30;1.30;;;;;;;;;;4933001;29;20380;-62
2022/08/12 09:28:56;;;;;;;1.30;1.20;;;;;;;;;;4951462;28;20254;-62
2022/08/12 09:31:26;;;;;;;1.27;1.13;;;;;;;;;;4950911;29;20211;-61
2022/08/12 09:33:53;;;;;;;0.93;0.93;;;;;;;;;;4951123;29;20754;-62
2022/08/12 09:36:20;;;;;;;1.40;1.00;;;;;;;;;;4951311;29;20580;-61
2022/08/12 09:38:47;;;;;;;1.10;1.10;;;;;;;;;;4949155;29;20211;-61
2022/08/12 09:41:14;;;;;;;1.58;1.48;;;;;;;;;;4947848;29;20210;-62
2022/08/12 09:46:30;;;;;;;1.70;1.30;;;;;;;;;;4949270;29;20218;-62
2022/08/12 09:48:57;;;;;;;1.30;1.30;;;;;;;;;;4947907;29;20215;-62
2022/08/12 09:51:25;;;;;;;1.98;1.40;;;;;;;;;;4950320;29;20312;-62
2022/08/12 09:53:52;;;;;;;4.10;1.50;;;;;;;;;;4949414;29;20239;-62
2022/08/12 09:56:22;;;;;;;3.05;1.30;;;;;;;;;;4951048;28;20262;-63
2022/08/12 09:58:50;;;;;;;1.92;1.27;;;;;;;;;;4949833;28;20294;-62
2022/08/12 10:01:18;;;;;;;1.00;1.00;;;;;;;;;;4951251;29;20199;-64
2022/08/12 10:03:48;;;;;;;1.15;1.15;;;;;;;;;;4958295;28;20302;-61
2022/08/12 10:06:15;;;;;;;1.27;1.27;;;;;;;;;;4950695;29;20245;-59
2022/08/12 10:08:43;;;;;;;1.58;1.23;;;;;;;;;;4951066;29;20210;-62
2022/08/12 10:13:56;;;;;;;1.17;1.08;;;;;;;;;;4947978;29;20198;-64
2022/08/12 10:16:27;;;;;;;1.30;1.20;;;;;;;;;;4950024;29;20573;-64
2022/08/12 10:18:58;;;;;;;1.63;1.10;;;;;;;;;;4950236;29;20681;-63
2022/08/12 10:21:26;;;;;;;1.15;1.15;;;;;;;;;;4943687;29;20214;-62
2022/08/12 10:23:55;;;;;;;2.00;1.13;;;;;;;;;;4950718;28;20235;-63
2022/08/12 10:31:53;;;;;;;1.52;1.17;;;;;;;;;;4950520;29;20253;-62
2022/08/12 10:34:22;;;;;;;1.30;1.30;;;;;;;;;;4950962;29;20313;-62
2022/08/12 10:36:51;;;;;;;1.42;1.33;;;;;;;;;;4950417;29;20226;-62
2022/08/12 10:39:19;;;;;;;1.23;1.23;;;;;;;;;;4949872;29;20231;-62
2022/08/12 10:44:32;;;;;;;1.10;1.10;;;;;;;;;;4931679;29;20574;-63
2022/08/12 10:46:59;;;;;;;1.30;1.30;;;;;;;;;;4932892;29;20609;-63
2022/08/12 10:49:33;;;;;;;1.10;1.10;;;;;;;;;;4950166;29;20211;-63
2022/08/12 10:52:01;;;;;;;1.63;1.08;;;;;;;;;;4949596;29;20219;-64
2022/08/12 10:54:28;;;;;;;1.10;1.10;;;;;;;;;;4949644;29;20207;-66
2022/08/12 10:56:56;;;;;;;1.10;1.10;;;;;;;;;;4949756;29;20214;-66
2022/08/12 10:59:23;;;;;;;1.08;0.90;;;;;;;;;;4950155;29;20214;-67
2022/08/12 11:01:52;;;;;;;0.90;0.90;;;;;;;;;;4948053;29;20245;-66
2022/08/12 11:04:19;;;;;;;1.05;1.00;;;;;;;;;;4949078;29;20710;-66
2022/08/12 11:06:49;;;;;;;1.05;0.70;;;;;;;;;;4947721;29;20678;-67
2022/08/12 11:09:17;;;;;;;0.80;0.80;;;;;;;;;;4944402;28;20211;-66
2022/08/12 11:11:46;;;;;;;1.00;1.00;;;;;;;;;;4949263;29;20223;-70
2022/08/12 11:14:16;;;;;;;1.42;0.93;;;;;;;;;;4948443;28;20700;-63
2022/08/12 11:16:43;;;;;;;1.00;1.00;;;;;;;;;;4948537;29;20251;-67
2022/08/12 11:19:10;;;;;;;0.98;0.90;;;;;;;;;;4947844;29;20215;-68
2022/08/12 11:21:37;;;;;;;0.90;0.90;;;;;;;;;;4949533;29;20694;-65
2022/08/12 11:24:06;;;;;;;0.80;0.80;;;;;;;;;;4950045;28;20235;-66
2022/08/12 11:26:33;;;;;;;1.08;1.08;;;;;;;;;;4949821;29;20298;-67
2022/08/12 11:29:00;;;;;;;1.17;1.17;;;;;;;;;;4949992;29;20202;-66
2022/08/12 11:31:27;;;;;;;0.98;0.95;;;;;;;;;;4950412;29;20229;-67
2022/08/12 11:33:54;;;;;;;1.40;0.75;;;;;;;;;;4949994;29;20219;-66
2022/08/12 11:36:21;;;;;;;0.90;0.90;;;;;;;;;;4950593;29;20255;-66
2022/08/12 11:38:48;;;;;;;2.15;0.80;;;;;;;;;;4949176;29;20223;-67
2022/08/12 11:41:17;;;;;;;2.75;1.17;;;;;;;;;;4950063;29;20313;-67
2022/08/12 11:43:44;;;;;;;0.98;0.98;;;;;;;;;;4954565;28;20316;-66
2022/08/12 11:46:11;;;;;;;1.23;1.05;;;;;;;;;;4959273;28;20226;-63
2022/08/12 11:48:39;;;;;;;1.10;1.10;;;;;;;;;;4951402;28;20206;-63
2022/08/12 11:51:07;;;;;;;4.20;1.20;;;;;;;;;;4949032;29;20293;-62
2022/08/12 11:53:34;;;;;;;2.65;0.90;;;;;;;;;;4946375;29;20227;-62
2022/08/12 11:56:01;;;;;;;3.15;1.08;;;;;;;;;;4948525;29;20211;-62
2022/08/12 11:58:29;;;;;;;1.02;1.02;;;;;;;;;;4945764;29;20210;-62
2022/08/12 12:00:59;;;;;;;1.10;1.10;;;;;;;;;;4949410;28;20215;-62
2022/08/12 12:03:26;;;;;;;1.52;1.10;;;;;;;;;;4948655;28;20712;-62
2022/08/12 12:05:53;;;;;;;1.77;1.10;;;;;;;;;;4945290;29;20240;-63
2022/08/12 12:08:21;;;;;;;0.90;0.90;;;;;;;;;;4948535;29;20211;-62
2022/08/12 12:10:49;;;;;;;0.85;0.85;;;;;;;;;;4950620;28;20286;-62
2022/08/12 12:13:16;;;;;;;0.98;0.98;;;;;;;;;;4949071;28;20211;-62
2022/08/12 12:15:45;;;;;;;2.70;1.00;;;;;;;;;;4949272;28;20300;-63
2022/08/12 12:18:21;;;;;;;0.93;0.82;;;;;;;;;;4947359;29;20210;-63
2022/08/12 12:20:49;;;;;;;2.55;1.00;;;;;;;;;;4950148;28;20218;-62
2022/08/12 12:23:16;;;;;;;0.95;0.95;;;;;;;;;;4952961;28;20210;-63
2022/08/12 12:25:43;;;;;;;0.93;0.93;;;;;;;;;;4952837;28;20226;-62
2022/08/12 12:28:10;;;;;;;1.27;1.20;;;;;;;;;;4949996;28;20771;-62
2022/08/12 12:30:37;;;;;;;2.20;0.95;;;;;;;;;;4952813;29;20286;-64
2022/08/12 12:33:06;;;;;;;1.40;0.90;;;;;;;;;;4952758;28;20669;-64
2022/08/12 12:35:33;;;;;;;1.85;0.80;;;;;;;;;;4950260;29;20658;-63
2022/08/12 12:38:01;;;;;;;0.68;0.68;;;;;;;;;;4952630;28;20211;-64
2022/08/12 12:40:29;;;;;;;0.80;0.80;;;;;;;;;;4952616;29;20278;-63
2022/08/12 12:42:57;;;;;;;3.00;0.90;;;;;;;;;;4951847;29;20286;-63
2022/08/12 12:45:24;;;;;;;0.98;0.80;;;;;;;;;;4952118;28;20219;-63
2022/08/12 12:47:55;;;;;;;0.60;0.60;;;;;;;;;;4949385;29;20695;-63
2022/08/12 12:50:24;;;;;;;0.80;0.80;;;;;;;;;;4952239;28;20240;-62
2022/08/12 12:52:51;;;;;;;0.80;0.80;;;;;;;;;;4949280;28;20588;-62
2022/08/12 12:55:19;;;;;;;7.45;0.90;;;;;;;;;;4950246;29;20618;-63
2022/08/12 12:57:47;;;;;;;0.93;0.93;;;;;;;;;;4951922;29;20269;-63
2022/08/12 13:00:15;;;;;;;0.80;0.80;;;;;;;;;;4951163;29;20210;-64
2022/08/12 13:02:49;;;;;;;2.47;0.98;;;;;;;;;;4951510;29;20485;-64
2022/08/12 13:05:17;;;;;;;2.35;0.95;;;;;;;;;;4946866;29;20237;-64
2022/08/12 13:07:46;;;;;;;2.40;0.90;;;;;;;;;;4950990;29;20207;-63
2022/08/12 13:10:13;;;;;;;1.00;1.00;;;;;;;;;;4952277;29;20311;-63
2022/08/12 13:12:41;;;;;;;1.17;1.00;;;;;;;;;;4951772;29;20218;-63
2022/08/12 13:15:09;;;;;;;0.90;0.60;;;;;;;;;;4952709;29;20701;-60
2022/08/12 13:17:36;;;;;;;0.82;0.82;;;;;;;;;;4957865;28;20310;-60
2022/08/12 13:20:04;;;;;;;1.85;0.90;;;;;;;;;;4952279;29;20207;-63
2022/08/12 13:22:32;;;;;;;1.45;0.90;;;;;;;;;;4952015;29;20323;-63
2022/08/12 13:25:00;;;;;;;2.72;0.90;;;;;;;;;;4953408;28;20231;-63
2022/08/12 13:27:28;;;;;;;2.00;0.90;;;;;;;;;;4957985;28;20638;-63
2022/08/12 13:29:56;;;;;;;0.73;0.73;;;;;;;;;;4960711;28;20307;-62
2022/08/12 13:32:28;;;;;;;1.23;0.88;;;;;;;;;;4952033;28;20214;-63
2022/08/12 13:34:55;;;;;;;4.13;0.80;;;;;;;;;;4951772;29;20719;-62
2022/08/12 13:37:25;;;;;;;1.33;0.90;;;;;;;;;;4950697;29;20211;-63
2022/08/12 13:39:53;;;;;;;0.80;0.80;;;;;;;;;;4950870;29;20207;-63
2022/08/12 13:42:21;;;;;;;0.77;0.77;;;;;;;;;;4951418;29;20207;-62
2022/08/12 13:44:51;;;;;;;2.28;0.88;;;;;;;;;;4950706;29;20207;-60
2022/08/12 13:47:19;;;;;;;0.85;0.85;;;;;;;;;;4951015;29;20309;-60
2022/08/12 13:49:47;;;;;;;5.35;1.00;;;;;;;;;;4951374;29;20332;-61
2022/08/12 13:52:17;;;;;;;0.73;0.73;;;;;;;;;;4951200;29;20215;-61
2022/08/12 13:54:45;;;;;;;3.13;0.70;;;;;;;;;;4951887;29;20207;-62
2022/08/12 13:57:13;;;;;;;3.65;0.93;;;;;;;;;;4951345;29;20661;-62
2022/08/12 13:59:43;;;;;;;1.27;0.73;;;;;;;;;;4951178;29;20337;-61
2022/08/12 14:02:12;;;;;;;0.63;0.60;;;;;;;;;;4950968;29;20219;-62
2022/08/12 14:04:39;;;;;;;0.60;0.60;;;;;;;;;;4951134;29;20207;-62
2022/08/12 14:07:06;;;;;;;1.98;0.85;;;;;;;;;;4951249;29;20258;-62
2022/08/12 14:10:35;;;;;;;4.80;1.00;;;;;;;;;;4950890;28;20612;-62
2022/08/12 14:12:33;;;;;;;2.60;1.00;;;;;;;;;;4951305;29;20203;-61
2022/08/12 14:15:01;;;;;;;3.60;0.88;;;;;;;;;;4951095;29;20215;-64
2022/08/12 14:17:29;;;;;;;1.90;0.80;;;;;;;;;;4949629;29;20211;-63
2022/08/12 14:20:15;;;;;;;0.80;0.80;;;;;;;;;;4950257;29;20211;-63
2022/08/12 14:22:42;;;;;;;0.90;0.90;;;;;;;;;;4949588;29;20298;-63
2022/08/12 14:25:09;;;;;;;2.83;0.70;;;;;;;;;;4950345;28;20697;-64
2022/08/12 14:27:37;;;;;;;1.02;0.82;;;;;;;;;;4950727;29;20602;-63
2022/08/12 14:30:06;;;;;;;0.70;0.70;;;;;;;;;;4950396;29;20210;-63
2022/08/12 14:32:34;;;;;;;1.13;1.00;;;;;;;;;;4959402;28;20227;-64
2022/08/12 14:35:01;;;;;;;2.20;0.80;;;;;;;;;;4950647;29;20203;-62
2022/08/12 14:37:28;;;;;;;1.23;1.13;;;;;;;;;;4950661;29;20203;-64
2022/08/12 14:39:56;;;;;;;0.90;0.90;;;;;;;;;;4949644;29;20589;-62
2022/08/12 14:42:23;;;;;;;0.88;0.80;;;;;;;;;;4950542;29;20210;-63
2022/08/12 14:44:50;;;;;;;1.10;1.00;;;;;;;;;;4949191;28;20289;-64
2022/08/12 14:47:19;;;;;;;1.42;0.95;;;;;;;;;;4949730;29;20602;-64
2022/08/12 14:49:46;;;;;;;1.00;1.00;;;;;;;;;;4948868;29;20230;-63
2022/08/12 14:52:13;;;;;;;0.90;0.90;;;;;;;;;;4948938;29;20219;-63
2022/08/12 14:54:42;;;;;;;0.95;0.80;;;;;;;;;;4949420;29;20203;-64
2022/08/12 14:57:10;;;;;;;1.00;1.00;;;;;;;;;;4944849;29;20210;-63
2022/08/12 15:02:23;;;;;;;0.75;0.75;;;;;;;;;;4947131;29;20225;-64
2022/08/12 15:04:54;;;;;;;0.70;0.70;;;;;;;;;;4945835;29;20229;-64
2022/08/12 15:07:21;;;;;;;0.90;0.90;;;;;;;;;;4949155;29;20607;-68
2022/08/12 15:09:48;;;;;;;0.80;0.80;;;;;;;;;;4949302;29;20314;-62
2022/08/12 15:12:16;;;;;;;1.13;1.02;;;;;;;;;;4949542;29;20214;-64
2022/08/12 15:14:43;;;;;;;0.90;0.90;;;;;;;;;;4949499;29;20210;-62
2022/08/12 15:17:11;;;;;;;1.15;1.00;;;;;;;;;;4949426;29;20206;-63
2022/08/12 15:19:39;;;;;;;0.93;0.93;;;;;;;;;;4948882;29;20269;-59
2022/08/12 15:22:06;;;;;;;0.80;0.80;;;;;;;;;;4949564;29;20218;-62
2022/08/12 15:24:36;;;;;;;2.70;0.90;;;;;;;;;;4949685;29;20239;-65
2022/08/12 15:27:03;;;;;;;2.75;1.00;;;;;;;;;;4948320;29;20234;-62
2022/08/12 15:29:30;;;;;;;0.80;0.80;;;;;;;;;;4949508;29;20210;-59
2022/08/12 15:31:57;;;;;;;1.08;1.00;;;;;;;;;;4950015;29;20206;-66
2022/08/12 15:34:24;;;;;;;5.20;1.00;;;;;;;;;;4949879;29;20203;-62
2022/08/12 15:36:53;;;;;;;1.02;0.93;;;;;;;;;;4956533;28;20207;-65
2022/08/12 15:39:20;;;;;;;2.25;0.93;;;;;;;;;;4947743;29;20246;-64
2022/08/12 15:41:47;;;;;;;0.82;0.82;;;;;;;;;;4949132;29;20207;-65
2022/08/12 15:44:14;;;;;;;0.80;0.80;;;;;;;;;;4949668;29;20208;-64
2022/08/12 15:46:41;;;;;;;1.00;1.00;;;;;;;;;;4949330;29;20223;-64
2022/08/12 15:49:10;;;;;;;2.85;1.10;;;;;;;;;;4949529;29;20207;-65
2022/08/12 15:51:37;;;;;;;1.80;1.70;;;;;;;;;;4949449;29;20214;-65
2022/08/12 15:54:06;;;;;;;1.10;1.10;;;;;;;;;;4945644;29;20642;-65
2022/08/12 15:56:35;;;;;;;1.65;1.00;;;;;;;;;;4951559;28;20685;-64
2022/08/12 15:59:02;;;;;;;0.82;0.82;;;;;;;;;;4952438;29;20215;-64
2022/08/12 16:01:29;;;;;;;1.00;1.00;;;;;;;;;;4952289;29;20207;-63
2022/08/12 16:03:58;;;;;;;0.70;0.70;;;;;;;;;;4952914;29;20207;-63
2022/08/12 16:06:25;;;;;;;0.70;0.70;;;;;;;;;;4953314;29;20234;-61
2022/08/12 16:08:52;;;;;;;1.00;1.00;;;;;;;;;;4953048;29;20215;-62
2022/08/12 16:11:21;;;;;;;0.93;0.93;;;;;;;;;;4952914;29;20689;-63
2022/08/12 16:13:50;;;;;;;1.65;1.15;;;;;;;;;;4952009;29;20235;-63
2022/08/12 16:16:18;;;;;;;2.15;1.27;;;;;;;;;;4952045;29;20231;-63
2022/08/12 16:18:45;;;;;;;1.40;1.30;;;;;;;;;;4953102;29;20214;-63
2022/08/12 16:21:16;;;;;;;1.17;1.00;;;;;;;;;;4952052;29;20211;-64
2022/08/12 16:23:48;;;;;;;5.47;0.88;;;;;;;;;;4953039;28;20239;-63
2022/08/12 16:26:15;;;;;;;2.13;1.30;;;;;;;;;;4951417;29;20579;-63
2022/08/12 16:28:44;;;;;;;2.97;1.08;;;;;;;;;;4952666;29;20214;-64
2022/08/12 16:31:13;;;;;;;1.90;1.00;;;;;;;;;;4956731;28;20211;-64
2022/08/12 16:33:41;;;;;;;0.80;0.75;;;;;;;;;;4952594;28;20266;-63
2022/08/12 16:36:09;;;;;;;1.67;0.95;;;;;;;;;;4951070;29;20313;-63
2022/08/12 16:38:37;;;;;;;2.42;1.60;;;;;;;;;;4952507;29;20221;-68
2022/08/12 16:41:05;;;;;;;1.42;0.80;;;;;;;;;;4952634;29;20274;-65
2022/08/12 16:43:34;;;;;;;1.85;0.98;;;;;;;;;;4952329;29;20217;-64